sensor_id;sensor_type;location;lat;lon;timestamp;P1;durP1;ratioP1;P2;durP2;ratioP2
74892;SDS011;63446;56.272;43.922;2023-05-07T00:02:01;5.63;;;1.83;;
74892;SDS011;63446;56.272;43.922;2023-05-07T00:04:27;6.00;;;1.80;;
74892;SDS011;63446;56.272;43.922;2023-05-07T00:06:54;4.90;;;1.63;;
74892;SDS011;63446;56.272;43.922;2023-05-07T00:09:21;8.30;;;1.83;;
74892;SDS011;63446;56.272;43.922;2023-05-07T00:11:47;3.73;;;1.37;;
74892;SDS011;63446;56.272;43.922;2023-05-07T00:14:13;3.38;;;1.23;;
74892;SDS011;63446;56.272;43.922;2023-05-07T00:16:39;7.63;;;2.03;;
74892;SDS011;63446;56.272;43.922;2023-05-07T00:19:05;4.97;;;1.63;;
74892;SDS011;63446;56.272;43.922;2023-05-07T00:21:31;4.85;;;1.45;;
74892;SDS011;63446;56.272;43.922;2023-05-07T00:23:57;6.35;;;1.70;;
74892;SDS011;63446;56.272;43.922;2023-05-07T00:26:23;4.85;;;1.35;;
74892;SDS011;63446;56.272;43.922;2023-05-07T00:28:50;7.00;;;1.80;;
74892;SDS011;63446;56.272;43.922;2023-05-07T00:31:16;5.25;;;1.45;;
74892;SDS011;63446;56.272;43.922;2023-05-07T00:33:42;4.75;;;1.50;;
74892;SDS011;63446;56.272;43.922;2023-05-07T00:36:08;5.00;;;1.60;;
74892;SDS011;63446;56.272;43.922;2023-05-07T00:38:34;5.43;;;1.58;;
74892;SDS011;63446;56.272;43.922;2023-05-07T00:41:00;5.20;;;1.60;;
74892;SDS011;63446;56.272;43.922;2023-05-07T00:43:28;4.03;;;1.20;;
74892;SDS011;63446;56.272;43.922;2023-05-07T00:45:55;5.75;;;1.50;;
74892;SDS011;63446;56.272;43.922;2023-05-07T00:48:22;5.05;;;1.63;;
74892;SDS011;63446;56.272;43.922;2023-05-07T00:50:49;4.85;;;1.50;;
74892;SDS011;63446;56.272;43.922;2023-05-07T00:53:15;5.07;;;1.70;;
74892;SDS011;63446;56.272;43.922;2023-05-07T00:55:41;7.40;;;1.50;;
74892;SDS011;63446;56.272;43.922;2023-05-07T00:58:08;5.43;;;1.73;;
74892;SDS011;63446;56.272;43.922;2023-05-07T01:00:34;4.20;;;1.52;;
74892;SDS011;63446;56.272;43.922;2023-05-07T01:03:01;4.38;;;1.50;;
74892;SDS011;63446;56.272;43.922;2023-05-07T01:05:27;5.77;;;1.73;;
74892;SDS011;63446;56.272;43.922;2023-05-07T01:07:54;4.60;;;1.92;;
74892;SDS011;63446;56.272;43.922;2023-05-07T01:10:22;6.63;;;2.08;;
74892;SDS011;63446;56.272;43.922;2023-05-07T01:12:48;11.52;;;1.83;;
74892;SDS011;63446;56.272;43.922;2023-05-07T01:15:15;5.07;;;1.52;;
74892;SDS011;63446;56.272;43.922;2023-05-07T01:17:42;6.82;;;1.60;;
74892;SDS011;63446;56.272;43.922;2023-05-07T01:20:15;6.80;;;1.88;;
74892;SDS011;63446;56.272;43.922;2023-05-07T01:22:43;5.13;;;1.55;;
74892;SDS011;63446;56.272;43.922;2023-05-07T01:25:10;6.25;;;1.73;;
74892;SDS011;63446;56.272;43.922;2023-05-07T01:27:40;9.13;;;1.85;;
74892;SDS011;63446;56.272;43.922;2023-05-07T01:30:06;5.90;;;1.63;;
74892;SDS011;63446;56.272;43.922;2023-05-07T01:32:35;5.20;;;1.85;;
74892;SDS011;63446;56.272;43.922;2023-05-07T01:35:07;5.90;;;2.08;;
74892;SDS011;63446;56.272;43.922;2023-05-07T01:37:38;5.10;;;2.00;;
74892;SDS011;63446;56.272;43.922;2023-05-07T01:40:06;5.15;;;1.85;;
74892;SDS011;63446;56.272;43.922;2023-05-07T01:42:32;6.32;;;2.00;;
74892;SDS011;63446;56.272;43.922;2023-05-07T01:44:59;7.47;;;1.80;;
74892;SDS011;63446;56.272;43.922;2023-05-07T01:47:25;5.53;;;1.75;;
74892;SDS011;63446;56.272;43.922;2023-05-07T01:49:52;10.23;;;2.50;;
74892;SDS011;63446;56.272;43.922;2023-05-07T01:52:18;7.80;;;2.10;;
74892;SDS011;63446;56.272;43.922;2023-05-07T01:54:44;4.70;;;1.70;;
74892;SDS011;63446;56.272;43.922;2023-05-07T01:57:10;6.25;;;2.10;;
74892;SDS011;63446;56.272;43.922;2023-05-07T01:59:37;5.97;;;2.10;;
74892;SDS011;63446;56.272;43.922;2023-05-07T02:02:02;5.32;;;1.90;;
74892;SDS011;63446;56.272;43.922;2023-05-07T02:04:31;5.15;;;1.60;;
74892;SDS011;63446;56.272;43.922;2023-05-07T02:06:57;6.57;;;1.47;;
74892;SDS011;63446;56.272;43.922;2023-05-07T02:09:23;4.30;;;1.58;;
74892;SDS011;63446;56.272;43.922;2023-05-07T02:11:50;7.30;;;1.63;;
74892;SDS011;63446;56.272;43.922;2023-05-07T02:14:17;7.82;;;2.10;;
74892;SDS011;63446;56.272;43.922;2023-05-07T02:16:45;5.78;;;1.73;;
74892;SDS011;63446;56.272;43.922;2023-05-07T02:19:13;4.40;;;1.73;;
74892;SDS011;63446;56.272;43.922;2023-05-07T02:21:39;5.82;;;1.85;;
74892;SDS011;63446;56.272;43.922;2023-05-07T02:24:05;4.03;;;1.90;;
74892;SDS011;63446;56.272;43.922;2023-05-07T02:26:31;3.97;;;1.48;;
74892;SDS011;63446;56.272;43.922;2023-05-07T02:28:57;5.87;;;2.30;;
74892;SDS011;63446;56.272;43.922;2023-05-07T02:31:23;5.90;;;1.80;;
74892;SDS011;63446;56.272;43.922;2023-05-07T02:33:49;4.27;;;1.87;;
74892;SDS011;63446;56.272;43.922;2023-05-07T02:36:15;4.45;;;1.50;;
74892;SDS011;63446;56.272;43.922;2023-05-07T02:38:50;6.80;;;2.08;;
74892;SDS011;63446;56.272;43.922;2023-05-07T02:41:16;5.13;;;1.80;;
74892;SDS011;63446;56.272;43.922;2023-05-07T02:43:42;4.97;;;2.20;;
74892;SDS011;63446;56.272;43.922;2023-05-07T02:46:09;5.57;;;2.03;;
74892;SDS011;63446;56.272;43.922;2023-05-07T02:48:39;4.82;;;2.08;;
74892;SDS011;63446;56.272;43.922;2023-05-07T02:51:05;4.20;;;2.20;;
74892;SDS011;63446;56.272;43.922;2023-05-07T02:53:32;4.50;;;2.30;;
74892;SDS011;63446;56.272;43.922;2023-05-07T02:55:58;3.90;;;2.40;;
74892;SDS011;63446;56.272;43.922;2023-05-07T02:58:26;6.90;;;2.23;;
74892;SDS011;63446;56.272;43.922;2023-05-07T03:00:52;5.03;;;2.63;;
74892;SDS011;63446;56.272;43.922;2023-05-07T03:03:52;4.57;;;2.53;;
74892;SDS011;63446;56.272;43.922;2023-05-07T03:06:18;4.45;;;2.60;;
74892;SDS011;63446;56.272;43.922;2023-05-07T03:08:44;5.22;;;2.58;;
74892;SDS011;63446;56.272;43.922;2023-05-07T03:11:10;3.90;;;2.53;;
74892;SDS011;63446;56.272;43.922;2023-05-07T03:13:36;4.80;;;2.70;;
74892;SDS011;63446;56.272;43.922;2023-05-07T03:16:03;5.32;;;2.97;;
74892;SDS011;63446;56.272;43.922;2023-05-07T03:18:29;5.93;;;3.03;;
74892;SDS011;63446;56.272;43.922;2023-05-07T03:20:54;4.37;;;3.00;;
74892;SDS011;63446;56.272;43.922;2023-05-07T03:23:21;4.50;;;3.28;;
74892;SDS011;63446;56.272;43.922;2023-05-07T03:25:47;3.72;;;2.42;;
74892;SDS011;63446;56.272;43.922;2023-05-07T03:28:13;4.50;;;3.00;;
74892;SDS011;63446;56.272;43.922;2023-05-07T03:30:45;5.95;;;3.45;;
74892;SDS011;63446;56.272;43.922;2023-05-07T03:33:11;5.95;;;3.30;;
74892;SDS011;63446;56.272;43.922;2023-05-07T03:35:38;5.50;;;3.42;;
74892;SDS011;63446;56.272;43.922;2023-05-07T03:38:04;4.40;;;3.30;;
74892;SDS011;63446;56.272;43.922;2023-05-07T03:40:33;5.55;;;3.20;;
74892;SDS011;63446;56.272;43.922;2023-05-07T03:42:59;7.05;;;3.65;;
74892;SDS011;63446;56.272;43.922;2023-05-07T03:45:26;5.18;;;3.28;;
74892;SDS011;63446;56.272;43.922;2023-05-07T03:48:05;4.88;;;3.72;;
74892;SDS011;63446;56.272;43.922;2023-05-07T03:50:32;4.17;;;3.40;;
74892;SDS011;63446;56.272;43.922;2023-05-07T03:52:58;4.07;;;3.58;;
74892;SDS011;63446;56.272;43.922;2023-05-07T03:55:24;6.32;;;3.85;;
74892;SDS011;63446;56.272;43.922;2023-05-07T03:57:55;4.82;;;3.80;;
74892;SDS011;63446;56.272;43.922;2023-05-07T04:00:23;4.75;;;4.18;;
74892;SDS011;63446;56.272;43.922;2023-05-07T04:02:49;5.67;;;4.80;;
74892;SDS011;63446;56.272;43.922;2023-05-07T04:05:21;6.38;;;4.60;;
74892;SDS011;63446;56.272;43.922;2023-05-07T04:07:50;5.30;;;4.75;;
74892;SDS011;63446;56.272;43.922;2023-05-07T04:10:20;5.80;;;5.13;;
74892;SDS011;63446;56.272;43.922;2023-05-07T04:12:48;6.17;;;4.93;;
74892;SDS011;63446;56.272;43.922;2023-05-07T04:15:18;5.75;;;5.05;;
74892;SDS011;63446;56.272;43.922;2023-05-07T04:17:45;6.13;;;4.78;;
74892;SDS011;63446;56.272;43.922;2023-05-07T04:20:15;5.00;;;4.43;;
74892;SDS011;63446;56.272;43.922;2023-05-07T04:22:43;6.10;;;5.50;;
74892;SDS011;63446;56.272;43.922;2023-05-07T04:25:09;5.47;;;4.97;;
74892;SDS011;63446;56.272;43.922;2023-05-07T04:27:36;5.65;;;5.07;;
74892;SDS011;63446;56.272;43.922;2023-05-07T04:30:03;6.35;;;5.47;;
74892;SDS011;63446;56.272;43.922;2023-05-07T04:32:33;6.20;;;5.43;;
74892;SDS011;63446;56.272;43.922;2023-05-07T04:35:00;6.20;;;5.60;;
74892;SDS011;63446;56.272;43.922;2023-05-07T04:37:26;6.50;;;5.90;;
74892;SDS011;63446;56.272;43.922;2023-05-07T04:39:52;6.60;;;6.10;;
74892;SDS011;63446;56.272;43.922;2023-05-07T04:42:19;8.40;;;5.97;;
74892;SDS011;63446;56.272;43.922;2023-05-07T04:44:45;6.82;;;6.22;;
74892;SDS011;63446;56.272;43.922;2023-05-07T04:47:11;6.50;;;5.90;;
74892;SDS011;63446;56.272;43.922;2023-05-07T04:49:38;7.33;;;6.43;;
74892;SDS011;63446;56.272;43.922;2023-05-07T04:52:05;7.60;;;6.90;;
74892;SDS011;63446;56.272;43.922;2023-05-07T04:54:32;7.30;;;6.60;;
74892;SDS011;63446;56.272;43.922;2023-05-07T04:56:59;7.68;;;6.65;;
74892;SDS011;63446;56.272;43.922;2023-05-07T04:59:25;7.80;;;6.90;;
74892;SDS011;63446;56.272;43.922;2023-05-07T05:01:50;11.30;;;7.00;;
74892;SDS011;63446;56.272;43.922;2023-05-07T05:04:16;7.10;;;6.32;;
74892;SDS011;63446;56.272;43.922;2023-05-07T05:06:42;7.17;;;6.47;;
74892;SDS011;63446;56.272;43.922;2023-05-07T05:09:10;7.95;;;6.95;;
74892;SDS011;63446;56.272;43.922;2023-05-07T05:11:37;7.50;;;6.80;;
74892;SDS011;63446;56.272;43.922;2023-05-07T05:14:03;7.30;;;6.70;;
74892;SDS011;63446;56.272;43.922;2023-05-07T05:16:29;7.50;;;6.90;;
74892;SDS011;63446;56.272;43.922;2023-05-07T05:18:55;7.85;;;7.05;;
74892;SDS011;63446;56.272;43.922;2023-05-07T05:21:21;7.73;;;6.70;;
74892;SDS011;63446;56.272;43.922;2023-05-07T05:23:49;8.32;;;6.32;;
74892;SDS011;63446;56.272;43.922;2023-05-07T05:26:21;7.80;;;7.20;;
74892;SDS011;63446;56.272;43.922;2023-05-07T05:28:47;4.45;;;4.05;;
74892;SDS011;63446;56.272;43.922;2023-05-07T05:31:14;7.40;;;6.80;;
74892;SDS011;63446;56.272;43.922;2023-05-07T05:33:41;7.57;;;6.97;;
74892;SDS011;63446;56.272;43.922;2023-05-07T05:36:11;8.07;;;7.30;;
74892;SDS011;63446;56.272;43.922;2023-05-07T05:38:39;8.50;;;7.90;;
74892;SDS011;63446;56.272;43.922;2023-05-07T05:41:05;4.47;;;3.83;;
74892;SDS011;63446;56.272;43.922;2023-05-07T05:43:32;4.68;;;3.50;;
74892;SDS011;63446;56.272;43.922;2023-05-07T05:45:58;6.70;;;2.97;;
74892;SDS011;63446;56.272;43.922;2023-05-07T05:48:24;4.40;;;2.80;;
74892;SDS011;63446;56.272;43.922;2023-05-07T05:50:50;6.32;;;4.30;;
74892;SDS011;63446;56.272;43.922;2023-05-07T05:53:18;4.70;;;2.30;;
74892;SDS011;63446;56.272;43.922;2023-05-07T05:55:43;4.00;;;2.30;;
74892;SDS011;63446;56.272;43.922;2023-05-07T05:58:11;4.65;;;2.15;;
74892;SDS011;63446;56.272;43.922;2023-05-07T06:00:41;4.68;;;1.90;;
74892;SDS011;63446;56.272;43.922;2023-05-07T06:03:06;7.90;;;2.05;;
74892;SDS011;63446;56.272;43.922;2023-05-07T06:05:34;4.23;;;1.60;;
74892;SDS011;63446;56.272;43.922;2023-05-07T06:08:00;3.83;;;1.80;;
74892;SDS011;63446;56.272;43.922;2023-05-07T06:10:30;4.63;;;1.38;;
74892;SDS011;63446;56.272;43.922;2023-05-07T06:12:56;3.45;;;1.20;;
74892;SDS011;63446;56.272;43.922;2023-05-07T06:15:22;5.47;;;1.30;;
74892;SDS011;63446;56.272;43.922;2023-05-07T06:17:48;3.88;;;1.30;;
74892;SDS011;63446;56.272;43.922;2023-05-07T06:20:14;4.53;;;1.20;;
74892;SDS011;63446;56.272;43.922;2023-05-07T06:22:40;5.22;;;1.30;;
74892;SDS011;63446;56.272;43.922;2023-05-07T06:25:09;4.67;;;1.10;;
74892;SDS011;63446;56.272;43.922;2023-05-07T06:27:36;8.55;;;1.25;;
74892;SDS011;63446;56.272;43.922;2023-05-07T06:30:02;3.45;;;1.20;;
74892;SDS011;63446;56.272;43.922;2023-05-07T06:32:31;4.03;;;1.10;;
74892;SDS011;63446;56.272;43.922;2023-05-07T06:34:57;4.63;;;1.27;;
74892;SDS011;63446;56.272;43.922;2023-05-07T06:37:23;3.50;;;1.17;;
74892;SDS011;63446;56.272;43.922;2023-05-07T06:39:56;10.52;;;1.10;;
74892;SDS011;63446;56.272;43.922;2023-05-07T06:42:22;2.67;;;1.00;;
74892;SDS011;63446;56.272;43.922;2023-05-07T06:44:49;6.07;;;0.90;;
74892;SDS011;63446;56.272;43.922;2023-05-07T06:47:17;4.27;;;1.00;;
74892;SDS011;63446;56.272;43.922;2023-05-07T06:49:45;3.47;;;1.00;;
74892;SDS011;63446;56.272;43.922;2023-05-07T06:52:15;2.63;;;0.98;;
74892;SDS011;63446;56.272;43.922;2023-05-07T06:54:41;4.75;;;1.05;;
74892;SDS011;63446;56.272;43.922;2023-05-07T06:57:08;4.38;;;0.95;;
74892;SDS011;63446;56.272;43.922;2023-05-07T06:59:34;3.17;;;0.80;;
74892;SDS011;63446;56.272;43.922;2023-05-07T07:02:00;5.63;;;0.85;;
74892;SDS011;63446;56.272;43.922;2023-05-07T07:04:26;3.30;;;0.70;;
74892;SDS011;63446;56.272;43.922;2023-05-07T07:06:59;8.75;;;0.85;;
74892;SDS011;63446;56.272;43.922;2023-05-07T07:09:27;3.65;;;0.88;;
74892;SDS011;63446;56.272;43.922;2023-05-07T07:11:54;3.63;;;0.93;;
74892;SDS011;63446;56.272;43.922;2023-05-07T07:14:20;2.65;;;0.90;;
74892;SDS011;63446;56.272;43.922;2023-05-07T07:16:49;4.45;;;0.90;;
74892;SDS011;63446;56.272;43.922;2023-05-07T07:19:18;3.58;;;0.80;;
74892;SDS011;63446;56.272;43.922;2023-05-07T07:21:47;3.22;;;0.73;;
74892;SDS011;63446;56.272;43.922;2023-05-07T07:24:14;3.27;;;0.70;;
74892;SDS011;63446;56.272;43.922;2023-05-07T07:26:50;2.72;;;0.80;;
74892;SDS011;63446;56.272;43.922;2023-05-07T07:29:17;3.25;;;0.70;;
74892;SDS011;63446;56.272;43.922;2023-05-07T07:31:44;2.75;;;0.70;;
74892;SDS011;63446;56.272;43.922;2023-05-07T07:34:10;3.70;;;0.70;;
74892;SDS011;63446;56.272;43.922;2023-05-07T07:36:36;4.32;;;1.00;;
74892;SDS011;63446;56.272;43.922;2023-05-07T07:39:02;4.05;;;0.90;;
74892;SDS011;63446;56.272;43.922;2023-05-07T07:41:28;3.05;;;0.80;;
74892;SDS011;63446;56.272;43.922;2023-05-07T07:43:54;3.40;;;0.60;;
74892;SDS011;63446;56.272;43.922;2023-05-07T07:46:21;4.15;;;0.57;;
74892;SDS011;63446;56.272;43.922;2023-05-07T07:48:47;3.33;;;0.70;;
74892;SDS011;63446;56.272;43.922;2023-05-07T07:51:13;3.95;;;0.70;;
74892;SDS011;63446;56.272;43.922;2023-05-07T07:53:40;4.93;;;0.60;;
74892;SDS011;63446;56.272;43.922;2023-05-07T07:56:06;4.38;;;0.50;;
74892;SDS011;63446;56.272;43.922;2023-05-07T07:58:34;2.33;;;0.60;;
74892;SDS011;63446;56.272;43.922;2023-05-07T08:01:01;2.90;;;0.85;;
74892;SDS011;63446;56.272;43.922;2023-05-07T08:03:27;3.43;;;1.07;;
74892;SDS011;63446;56.272;43.922;2023-05-07T08:05:57;3.20;;;0.50;;
74892;SDS011;63446;56.272;43.922;2023-05-07T08:08:24;4.18;;;0.82;;
74892;SDS011;63446;56.272;43.922;2023-05-07T08:10:51;8.90;;;1.10;;
74892;SDS011;63446;56.272;43.922;2023-05-07T08:13:24;4.15;;;0.80;;
74892;SDS011;63446;56.272;43.922;2023-05-07T08:15:50;7.67;;;1.00;;
74892;SDS011;63446;56.272;43.922;2023-05-07T08:18:16;4.82;;;0.90;;
74892;SDS011;63446;56.272;43.922;2023-05-07T08:20:44;4.22;;;0.60;;
74892;SDS011;63446;56.272;43.922;2023-05-07T08:23:14;5.18;;;0.70;;
74892;SDS011;63446;56.272;43.922;2023-05-07T08:25:41;6.87;;;1.10;;
74892;SDS011;63446;56.272;43.922;2023-05-07T08:28:08;2.78;;;0.80;;
74892;SDS011;63446;56.272;43.922;2023-05-07T08:30:35;5.95;;;0.90;;
74892;SDS011;63446;56.272;43.922;2023-05-07T08:33:00;3.97;;;0.80;;
74892;SDS011;63446;56.272;43.922;2023-05-07T08:35:26;3.90;;;0.60;;
74892;SDS011;63446;56.272;43.922;2023-05-07T08:37:54;4.45;;;0.90;;
74892;SDS011;63446;56.272;43.922;2023-05-07T08:40:25;2.45;;;0.75;;
74892;SDS011;63446;56.272;43.922;2023-05-07T08:42:52;4.95;;;1.02;;
74892;SDS011;63446;56.272;43.922;2023-05-07T08:45:20;5.03;;;0.80;;
74892;SDS011;63446;56.272;43.922;2023-05-07T08:47:54;4.30;;;0.90;;
74892;SDS011;63446;56.272;43.922;2023-05-07T08:50:28;3.70;;;1.00;;
74892;SDS011;63446;56.272;43.922;2023-05-07T08:52:56;4.75;;;1.20;;
74892;SDS011;63446;56.272;43.922;2023-05-07T08:55:24;4.32;;;0.90;;
74892;SDS011;63446;56.272;43.922;2023-05-07T08:57:50;7.40;;;0.90;;
74892;SDS011;63446;56.272;43.922;2023-05-07T09:00:19;2.30;;;0.70;;
74892;SDS011;63446;56.272;43.922;2023-05-07T09:02:49;4.00;;;1.00;;
74892;SDS011;63446;56.272;43.922;2023-05-07T09:05:15;4.60;;;0.80;;
74892;SDS011;63446;56.272;43.922;2023-05-07T09:07:41;3.23;;;0.97;;
74892;SDS011;63446;56.272;43.922;2023-05-07T09:10:07;3.92;;;0.70;;
74892;SDS011;63446;56.272;43.922;2023-05-07T09:12:35;6.30;;;0.80;;
74892;SDS011;63446;56.272;43.922;2023-05-07T09:15:03;9.43;;;1.00;;
74892;SDS011;63446;56.272;43.922;2023-05-07T09:17:33;3.83;;;0.80;;
74892;SDS011;63446;56.272;43.922;2023-05-07T09:20:03;2.93;;;0.90;;
74892;SDS011;63446;56.272;43.922;2023-05-07T09:22:32;5.93;;;0.93;;
74892;SDS011;63446;56.272;43.922;2023-05-07T09:25:02;3.22;;;0.80;;
74892;SDS011;63446;56.272;43.922;2023-05-07T09:27:30;5.95;;;0.80;;
74892;SDS011;63446;56.272;43.922;2023-05-07T09:29:58;8.77;;;1.23;;
74892;SDS011;63446;56.272;43.922;2023-05-07T09:32:24;6.67;;;0.97;;
74892;SDS011;63446;56.272;43.922;2023-05-07T09:34:51;4.15;;;0.93;;
74892;SDS011;63446;56.272;43.922;2023-05-07T09:37:21;3.25;;;0.90;;
74892;SDS011;63446;56.272;43.922;2023-05-07T09:39:48;5.40;;;1.00;;
74892;SDS011;63446;56.272;43.922;2023-05-07T09:42:23;4.37;;;1.00;;
74892;SDS011;63446;56.272;43.922;2023-05-07T09:44:51;6.00;;;1.00;;
74892;SDS011;63446;56.272;43.922;2023-05-07T09:47:23;5.57;;;0.95;;
74892;SDS011;63446;56.272;43.922;2023-05-07T09:49:54;5.25;;;0.98;;
74892;SDS011;63446;56.272;43.922;2023-05-07T09:52:23;4.25;;;0.90;;
74892;SDS011;63446;56.272;43.922;2023-05-07T09:54:53;3.47;;;0.80;;
74892;SDS011;63446;56.272;43.922;2023-05-07T09:57:23;4.78;;;0.75;;
74892;SDS011;63446;56.272;43.922;2023-05-07T09:59:54;4.57;;;0.80;;
74892;SDS011;63446;56.272;43.922;2023-05-07T10:02:23;3.65;;;0.70;;
74892;SDS011;63446;56.272;43.922;2023-05-07T10:04:53;5.03;;;0.88;;
74892;SDS011;63446;56.272;43.922;2023-05-07T10:07:24;5.57;;;1.10;;
74892;SDS011;63446;56.272;43.922;2023-05-07T10:09:55;5.68;;;1.10;;
74892;SDS011;63446;56.272;43.922;2023-05-07T10:12:30;3.95;;;0.90;;
74892;SDS011;63446;56.272;43.922;2023-05-07T10:15:06;4.47;;;1.20;;
74892;SDS011;63446;56.272;43.922;2023-05-07T10:17:36;6.13;;;1.30;;
74892;SDS011;63446;56.272;43.922;2023-05-07T10:20:04;3.27;;;0.90;;
74892;SDS011;63446;56.272;43.922;2023-05-07T10:22:43;5.38;;;1.20;;
74892;SDS011;63446;56.272;43.922;2023-05-07T10:25:46;3.22;;;1.13;;
74892;SDS011;63446;56.272;43.922;2023-05-07T10:28:13;3.78;;;1.20;;
74892;SDS011;63446;56.272;43.922;2023-05-07T10:31:03;6.03;;;1.15;;
74892;SDS011;63446;56.272;43.922;2023-05-07T10:33:44;5.80;;;0.97;;
74892;SDS011;63446;56.272;43.922;2023-05-07T10:36:14;3.45;;;1.02;;
74892;SDS011;63446;56.272;43.922;2023-05-07T10:38:40;5.80;;;1.40;;
74892;SDS011;63446;56.272;43.922;2023-05-07T10:41:06;5.43;;;1.02;;
74892;SDS011;63446;56.272;43.922;2023-05-07T10:43:40;5.70;;;1.23;;
74892;SDS011;63446;56.272;43.922;2023-05-07T10:46:13;3.97;;;1.27;;
74892;SDS011;63446;56.272;43.922;2023-05-07T10:51:35;3.58;;;1.00;;
74892;SDS011;63446;56.272;43.922;2023-05-07T10:56:45;5.18;;;1.02;;
74892;SDS011;63446;56.272;43.922;2023-05-07T11:01:55;6.93;;;1.77;;
74892;SDS011;63446;56.272;43.922;2023-05-07T11:04:41;7.25;;;1.20;;
74892;SDS011;63446;56.272;43.922;2023-05-07T11:07:21;5.57;;;1.30;;
74892;SDS011;63446;56.272;43.922;2023-05-07T11:15:08;4.18;;;1.20;;
74892;SDS011;63446;56.272;43.922;2023-05-07T11:26:42;4.77;;;1.23;;
74892;SDS011;63446;56.272;43.922;2023-05-07T11:29:12;4.45;;;1.30;;
74892;SDS011;63446;56.272;43.922;2023-05-07T11:31:41;3.40;;;1.15;;
74892;SDS011;63446;56.272;43.922;2023-05-07T11:34:07;4.32;;;1.20;;
74892;SDS011;63446;56.272;43.922;2023-05-07T11:36:34;4.43;;;1.33;;
74892;SDS011;63446;56.272;43.922;2023-05-07T11:39:02;4.20;;;1.23;;
74892;SDS011;63446;56.272;43.922;2023-05-07T11:41:35;3.38;;;1.13;;
74892;SDS011;63446;56.272;43.922;2023-05-07T11:44:02;5.80;;;1.13;;
74892;SDS011;63446;56.272;43.922;2023-05-07T11:46:28;2.50;;;0.90;;
74892;SDS011;63446;56.272;43.922;2023-05-07T11:48:54;7.25;;;1.20;;
74892;SDS011;63446;56.272;43.922;2023-05-07T11:51:22;4.63;;;1.20;;
74892;SDS011;63446;56.272;43.922;2023-05-07T11:53:52;5.20;;;1.33;;
74892;SDS011;63446;56.272;43.922;2023-05-07T11:56:19;6.53;;;1.60;;
74892;SDS011;63446;56.272;43.922;2023-05-07T11:58:46;5.40;;;1.37;;
74892;SDS011;63446;56.272;43.922;2023-05-07T12:01:13;4.80;;;1.42;;
74892;SDS011;63446;56.272;43.922;2023-05-07T12:03:40;4.68;;;1.20;;
74892;SDS011;63446;56.272;43.922;2023-05-07T12:06:08;6.63;;;1.27;;
74892;SDS011;63446;56.272;43.922;2023-05-07T12:08:38;3.60;;;1.08;;
74892;SDS011;63446;56.272;43.922;2023-05-07T12:11:09;11.33;;;1.33;;
74892;SDS011;63446;56.272;43.922;2023-05-07T12:13:42;6.93;;;1.63;;
74892;SDS011;63446;56.272;43.922;2023-05-07T12:16:08;7.00;;;1.38;;
74892;SDS011;63446;56.272;43.922;2023-05-07T12:18:35;6.80;;;1.25;;
74892;SDS011;63446;56.272;43.922;2023-05-07T12:21:02;3.67;;;1.13;;
74892;SDS011;63446;56.272;43.922;2023-05-07T12:23:29;4.33;;;1.37;;
74892;SDS011;63446;56.272;43.922;2023-05-07T12:25:55;5.03;;;1.50;;
74892;SDS011;63446;56.272;43.922;2023-05-07T12:28:21;5.47;;;1.38;;
74892;SDS011;63446;56.272;43.922;2023-05-07T12:30:47;4.40;;;1.30;;
74892;SDS011;63446;56.272;43.922;2023-05-07T12:33:20;9.82;;;1.63;;
74892;SDS011;63446;56.272;43.922;2023-05-07T12:35:50;5.32;;;1.60;;
74892;SDS011;63446;56.272;43.922;2023-05-07T12:38:19;6.05;;;1.40;;
74892;SDS011;63446;56.272;43.922;2023-05-07T12:40:46;6.23;;;1.57;;
74892;SDS011;63446;56.272;43.922;2023-05-07T12:43:26;4.72;;;1.58;;
74892;SDS011;63446;56.272;43.922;2023-05-07T12:45:55;7.88;;;1.38;;
74892;SDS011;63446;56.272;43.922;2023-05-07T12:48:23;4.40;;;1.05;;
74892;SDS011;63446;56.272;43.922;2023-05-07T12:50:55;3.47;;;1.10;;
74892;SDS011;63446;56.272;43.922;2023-05-07T12:53:24;6.27;;;1.40;;
74892;SDS011;63446;56.272;43.922;2023-05-07T12:55:54;4.65;;;1.38;;
74892;SDS011;63446;56.272;43.922;2023-05-07T12:58:26;4.35;;;1.30;;
74892;SDS011;63446;56.272;43.922;2023-05-07T13:00:58;6.28;;;1.50;;
74892;SDS011;63446;56.272;43.922;2023-05-07T13:03:29;5.90;;;1.38;;
74892;SDS011;63446;56.272;43.922;2023-05-07T13:06:04;7.57;;;1.67;;
74892;SDS011;63446;56.272;43.922;2023-05-07T13:08:39;6.68;;;1.80;;
74892;SDS011;63446;56.272;43.922;2023-05-07T13:11:08;7.13;;;2.35;;
74892;SDS011;63446;56.272;43.922;2023-05-07T13:13:36;8.20;;;2.55;;
74892;SDS011;63446;56.272;43.922;2023-05-07T13:16:02;5.85;;;1.80;;
74892;SDS011;63446;56.272;43.922;2023-05-07T13:18:30;8.40;;;1.77;;
74892;SDS011;63446;56.272;43.922;2023-05-07T13:20:56;8.55;;;1.23;;
74892;SDS011;63446;56.272;43.922;2023-05-07T13:23:22;5.63;;;1.50;;
74892;SDS011;63446;56.272;43.922;2023-05-07T13:25:50;4.70;;;1.50;;
74892;SDS011;63446;56.272;43.922;2023-05-07T13:28:17;4.65;;;1.60;;
74892;SDS011;63446;56.272;43.922;2023-05-07T13:30:43;6.57;;;1.77;;
74892;SDS011;63446;56.272;43.922;2023-05-07T13:33:09;9.93;;;1.42;;
74892;SDS011;63446;56.272;43.922;2023-05-07T13:35:36;5.40;;;1.23;;
74892;SDS011;63446;56.272;43.922;2023-05-07T13:38:02;5.13;;;1.37;;
74892;SDS011;63446;56.272;43.922;2023-05-07T13:40:28;5.68;;;1.50;;
74892;SDS011;63446;56.272;43.922;2023-05-07T13:42:56;6.57;;;1.70;;
74892;SDS011;63446;56.272;43.922;2023-05-07T13:45:24;6.33;;;1.33;;
74892;SDS011;63446;56.272;43.922;2023-05-07T13:47:51;4.28;;;1.38;;
74892;SDS011;63446;56.272;43.922;2023-05-07T13:50:18;3.83;;;1.25;;
74892;SDS011;63446;56.272;43.922;2023-05-07T13:52:44;6.70;;;1.40;;
74892;SDS011;63446;56.272;43.922;2023-05-07T13:55:23;5.82;;;1.00;;
74892;SDS011;63446;56.272;43.922;2023-05-07T13:57:56;12.45;;;1.65;;
74892;SDS011;63446;56.272;43.922;2023-05-07T14:00:23;4.70;;;1.02;;
74892;SDS011;63446;56.272;43.922;2023-05-07T14:02:49;3.03;;;0.80;;
74892;SDS011;63446;56.272;43.922;2023-05-07T14:05:15;4.20;;;1.20;;
74892;SDS011;63446;56.272;43.922;2023-05-07T14:07:41;6.93;;;1.00;;
74892;SDS011;63446;56.272;43.922;2023-05-07T14:10:07;7.95;;;1.70;;
74892;SDS011;63446;56.272;43.922;2023-05-07T14:12:35;6.72;;;1.88;;
74892;SDS011;63446;56.272;43.922;2023-05-07T14:15:00;4.33;;;1.17;;
74892;SDS011;63446;56.272;43.922;2023-05-07T14:17:26;7.53;;;1.23;;
74892;SDS011;63446;56.272;43.922;2023-05-07T14:19:53;7.53;;;1.10;;
74892;SDS011;63446;56.272;43.922;2023-05-07T14:22:23;5.10;;;1.30;;
74892;SDS011;63446;56.272;43.922;2023-05-07T14:24:49;6.80;;;2.08;;
74892;SDS011;63446;56.272;43.922;2023-05-07T14:27:15;10.27;;;1.80;;
74892;SDS011;63446;56.272;43.922;2023-05-07T14:29:42;5.30;;;1.70;;
74892;SDS011;63446;56.272;43.922;2023-05-07T14:32:08;4.70;;;1.30;;
74892;SDS011;63446;56.272;43.922;2023-05-07T14:34:34;12.65;;;2.08;;
74892;SDS011;63446;56.272;43.922;2023-05-07T14:37:00;4.25;;;1.17;;
74892;SDS011;63446;56.272;43.922;2023-05-07T14:39:27;6.70;;;1.08;;
74892;SDS011;63446;56.272;43.922;2023-05-07T14:41:53;7.10;;;1.17;;
74892;SDS011;63446;56.272;43.922;2023-05-07T14:44:21;4.07;;;0.80;;
74892;SDS011;63446;56.272;43.922;2023-05-07T14:46:47;5.63;;;1.40;;
74892;SDS011;63446;56.272;43.922;2023-05-07T14:49:14;4.35;;;1.25;;
74892;SDS011;63446;56.272;43.922;2023-05-07T14:51:46;6.00;;;0.90;;
74892;SDS011;63446;56.272;43.922;2023-05-07T14:54:12;3.43;;;1.20;;
74892;SDS011;63446;56.272;43.922;2023-05-07T14:56:39;6.43;;;2.55;;
74892;SDS011;63446;56.272;43.922;2023-05-07T14:59:05;12.48;;;6.80;;
74892;SDS011;63446;56.272;43.922;2023-05-07T15:01:31;11.43;;;7.15;;